Time;durP1;ratioP1;P1;durP2;ratioP2;P2;SDS_P1;SDS_P2;PMS_P1;PMS_P2;Temp;Humidity;BMP_temperature;BMP_pressure;BME280_temperature;BME280_humidity;BME280_pressure;Samples;Min_cycle;Max_cycle;Signal;HPM_P1;HPM_P2
2023/01/19 00:00:20;;;;;;;16.27;9.30;;;1.80;99.90;;;-144.05;71.28;125687.94;5022705;28;20059;-83
2023/01/19 00:02:46;;;;;;;16.92;9.85;;;1.80;99.90;;;-144.05;71.21;125687.94;5023869;28;20026;-83
2023/01/19 00:05:13;;;;;;;15.57;9.60;;;1.80;99.90;;;-144.05;71.29;125687.94;5006844;28;20041;-84
2023/01/19 00:07:40;;;;;;;15.23;10.05;;;1.80;99.90;;;-144.05;71.62;125687.94;5005417;28;20560;-82
2023/01/19 00:10:08;;;;;;;15.70;10.20;;;1.70;99.90;;;-144.05;71.82;125687.94;5008061;28;20038;-82
2023/01/19 00:12:34;;;;;;;19.40;10.45;;;1.70;99.90;;;-144.05;71.92;125687.94;5006219;28;20098;-81
2023/01/19 00:15:00;;;;;;;14.48;9.75;;;1.70;99.90;;;-144.05;71.84;125687.94;5002982;28;20036;-81
2023/01/19 00:17:26;;;;;;;21.55;10.60;;;1.70;99.90;;;-144.05;71.54;125687.94;5000861;28;20025;-81
2023/01/19 00:19:51;;;;;;;19.38;10.13;;;1.60;99.90;;;-144.05;72.12;125687.94;5017356;28;20064;-81
2023/01/19 00:22:17;;;;;;;19.00;9.75;;;1.60;99.90;;;-144.05;72.11;125687.94;5017858;28;20076;-81
2023/01/19 00:24:44;;;;;;;18.33;9.27;;;1.70;99.90;;;-144.05;72.19;125687.94;5022274;28;20024;-80
2023/01/19 00:27:09;;;;;;;18.52;9.52;;;1.70;99.90;;;-144.05;72.02;125687.94;5035516;28;20033;-79
2023/01/19 00:29:35;;;;;;;18.42;10.65;;;1.70;99.90;;;-144.05;72.28;125687.94;5018665;28;20094;-80
2023/01/19 00:32:04;;;;;;;16.67;9.40;;;1.70;99.90;;;-144.05;71.82;125687.94;5032965;28;20041;-83
2023/01/19 00:34:35;;;;;;;15.68;9.65;;;1.70;99.90;;;-144.05;71.95;125687.94;5026903;28;20033;-82
2023/01/19 00:37:03;;;;;;;16.95;9.65;;;1.70;99.90;;;-144.05;72.42;125687.94;5009113;28;20141;-82
2023/01/19 00:39:29;;;;;;;14.70;9.07;;;1.70;99.90;;;-144.05;72.38;125687.94;5025236;28;20033;-84
2023/01/19 00:44:39;;;;;;;20.00;11.02;;;1.80;99.90;;;-144.05;72.35;125687.94;5024970;28;20101;-82
2023/01/19 00:47:05;;;;;;;19.70;9.80;;;1.80;99.90;;;-144.05;72.59;125687.94;5024172;28;20022;-82
2023/01/19 00:49:31;;;;;;;13.32;9.05;;;1.80;99.90;;;-144.05;72.21;125687.94;5007180;28;20040;-83
2023/01/19 00:51:57;;;;;;;16.98;9.77;;;1.80;99.90;;;-144.05;72.49;125687.94;5007977;28;20036;-82
2023/01/19 00:54:22;;;;;;;15.80;9.63;;;1.80;99.90;;;-144.05;72.66;125687.94;5008039;28;20030;-82
2023/01/19 00:56:48;;;;;;;15.63;9.93;;;1.80;99.90;;;-144.05;72.54;125687.94;5007802;28;20033;-82
2023/01/19 00:59:14;;;;;;;19.30;10.23;;;1.80;99.90;;;-144.05;72.52;125687.94;5008713;28;20026;-82
2023/01/19 01:01:40;;;;;;;15.30;9.75;;;1.80;99.90;;;-144.05;72.00;125687.94;5026568;28;20033;-83
2023/01/19 01:04:06;;;;;;;18.48;10.38;;;1.80;99.90;;;-144.05;72.07;125687.94;5007588;28;20655;-82
2023/01/19 01:06:31;;;;;;;16.23;9.73;;;1.80;99.90;;;-144.05;72.14;125687.94;5009576;28;20061;-84
2023/01/19 01:08:57;;;;;;;15.52;9.25;;;1.90;99.90;;;-144.05;71.89;125687.94;5027525;28;20053;-82
2023/01/19 01:11:23;;;;;;;14.95;9.52;;;1.90;99.90;;;-144.05;71.63;125687.94;5030709;28;20030;-82
2023/01/19 01:13:49;;;;;;;15.00;9.63;;;2.00;99.90;;;-144.05;71.42;125687.94;5011912;28;20045;-82
2023/01/19 01:16:15;;;;;;;18.52;10.32;;;2.00;99.90;;;-144.05;71.53;125687.94;5030305;28;20028;-81
2023/01/19 01:18:43;;;;;;;18.55;10.50;;;2.00;99.90;;;-144.05;71.43;125687.94;5011062;28;20060;-83
2023/01/19 01:21:11;;;;;;;19.63;9.30;;;2.00;99.90;;;-144.05;71.80;125687.94;5031459;28;20030;-83
2023/01/19 01:23:38;;;;;;;16.98;10.07;;;2.00;99.90;;;-144.05;71.86;125687.94;5031117;28;20034;-83
2023/01/19 01:26:04;;;;;;;14.38;9.82;;;1.90;99.90;;;-144.05;72.20;125687.94;5030551;28;20037;-83
2023/01/19 01:28:31;;;;;;;18.05;10.20;;;1.80;99.90;;;-144.05;72.34;125687.94;5029409;28;20061;-82
2023/01/19 01:30:57;;;;;;;14.15;9.32;;;1.90;99.90;;;-144.05;72.32;125687.94;5029675;28;20033;-80
2023/01/19 01:33:23;;;;;;;20.65;9.90;;;1.90;99.90;;;-144.05;72.15;125687.94;5027786;28;20069;-84
2023/01/19 01:35:50;;;;;;;16.13;9.25;;;1.90;99.90;;;-144.05;72.03;125687.94;5013948;28;20030;-84
2023/01/19 01:38:17;;;;;;;17.42;9.68;;;1.90;99.90;;;-144.05;71.88;125687.94;5030459;28;20030;-82
2023/01/19 01:40:43;;;;;;;19.00;9.48;;;2.00;99.90;;;-144.05;71.93;125687.94;5013813;28;20034;-82
2023/01/19 01:43:16;;;;;;;16.08;10.05;;;2.00;99.90;;;-144.05;72.15;125687.94;5011352;28;20033;-84
2023/01/19 01:45:42;;;;;;;15.23;9.15;;;2.10;99.90;;;-144.05;71.47;125687.94;5010944;28;20034;-81
2023/01/19 01:48:29;;;;;;;15.88;10.18;;;2.10;99.90;;;-144.05;71.53;125687.94;5029716;28;20068;-84
2023/01/19 01:51:23;;;;;;;14.35;9.15;;;2.00;99.90;;;-144.05;71.87;125687.94;5027024;28;20097;-84
2023/01/19 01:54:21;;;;;;;18.70;9.10;;;2.00;99.90;;;-144.05;71.81;125687.94;5011287;28;20034;-84
2023/01/19 01:56:54;;;;;;;17.60;10.23;;;2.00;99.90;;;-144.05;71.70;125687.94;5022456;28;20066;-85
2023/01/19 01:59:38;;;;;;;14.48;9.40;;;2.10;99.90;;;-144.05;71.76;125687.94;5029973;28;20072;-82
2023/01/19 02:05:08;;;;;;;12.80;8.57;;;2.20;99.90;;;-144.05;71.58;125687.94;5027062;28;20406;-82
2023/01/19 02:13:35;;;;;;;14.75;9.00;;;2.30;99.90;;;-144.05;71.34;125687.94;5028382;28;20127;-83
2023/01/19 02:16:07;;;;;;;16.85;10.02;;;2.30;99.90;;;-144.05;70.86;125687.94;5027116;28;20041;-84
2023/01/19 02:18:35;;;;;;;17.55;10.30;;;2.30;99.90;;;-144.05;71.55;125687.94;5009207;28;20040;-84
2023/01/19 02:21:34;;;;;;;17.70;9.93;;;2.30;99.90;;;-144.05;71.45;125687.94;5012710;28;20041;-81
2023/01/19 02:24:01;;;;;;;22.05;9.65;;;2.30;99.90;;;-144.05;71.11;125687.94;5015161;28;20054;-83
2023/01/19 02:26:46;;;;;;;17.15;9.45;;;2.30;99.90;;;-144.05;70.99;125687.94;5015478;28;20037;-81
2023/01/19 02:29:19;;;;;;;18.30;9.13;;;2.30;99.90;;;-144.05;71.08;125687.94;5032517;28;20033;-80
2023/01/19 02:31:46;;;;;;;14.73;9.35;;;2.30;99.90;;;-144.05;71.06;125687.94;5033916;28;20058;-82
2023/01/19 02:34:18;;;;;;;15.93;9.52;;;2.30;99.90;;;-144.05;71.17;125687.94;5034303;28;20034;-81
2023/01/19 02:37:14;;;;;;;15.40;10.13;;;2.30;99.90;;;-144.05;71.35;125687.94;5033074;28;20029;-83
2023/01/19 02:39:57;;;;;;;15.50;9.07;;;2.30;99.90;;;-144.05;71.20;125687.94;5013679;28;20037;-82
2023/01/19 02:42:48;;;;;;;17.27;9.63;;;2.20;99.90;;;-144.05;71.49;125687.94;5031676;28;20036;-81
2023/01/19 02:45:21;;;;;;;21.33;9.43;;;2.20;99.90;;;-144.05;71.55;125687.94;5009677;28;20041;-83
2023/01/19 02:47:51;;;;;;;14.27;8.57;;;2.20;99.90;;;-144.05;71.42;125687.94;5034338;28;20022;-81
2023/01/19 02:50:49;;;;;;;21.25;9.68;;;2.20;99.90;;;-144.05;71.18;125687.94;5030148;28;20022;-80
2023/01/19 02:53:59;;;;;;;16.60;8.90;;;2.30;99.90;;;-144.05;71.45;125687.94;5013996;28;20049;-83
2023/01/19 02:56:57;;;;;;;15.30;8.35;;;2.30;99.90;;;-144.05;71.08;125687.94;5014849;28;20093;-83
2023/01/19 03:00:31;;;;;;;13.70;8.93;;;2.20;99.90;;;-144.05;71.15;125687.94;5030987;28;20032;-78
2023/01/19 03:03:25;;;;;;;13.32;9.02;;;2.20;99.90;;;-144.05;71.04;125687.94;4976230;28;20543;-81
2023/01/19 03:06:35;;;;;;;15.98;9.50;;;2.20;99.90;;;-144.05;70.93;125687.94;4976746;28;20035;-80
2023/01/19 03:09:33;;;;;;;16.27;8.48;;;2.20;99.90;;;-144.05;71.38;125687.94;5029210;28;20042;-82
2023/01/19 03:12:47;;;;;;;17.35;9.05;;;2.10;99.90;;;-144.05;71.29;125687.94;5016415;28;20101;-80
2023/01/19 03:15:26;;;;;;;19.48;9.05;;;2.10;99.90;;;-144.05;71.38;125687.94;5015707;28;20030;-78
2023/01/19 03:17:54;;;;;;;14.10;8.15;;;2.00;99.90;;;-144.05;71.55;125687.94;5015516;28;20060;-80
2023/01/19 03:20:27;;;;;;;18.92;9.38;;;2.00;99.90;;;-144.05;72.07;125687.94;5015294;28;20197;-77
2023/01/19 03:23:03;;;;;;;14.07;8.57;;;2.00;99.90;;;-144.05;71.80;125687.94;4997707;28;20045;-80
2023/01/19 03:25:39;;;;;;;14.88;8.07;;;2.00;99.90;;;-144.05;71.48;125687.94;5015434;28;20026;-80
2023/01/19 03:28:05;;;;;;;15.02;8.45;;;2.00;99.90;;;-144.05;71.79;125687.94;4998051;28;20109;-81
2023/01/19 03:30:45;;;;;;;12.13;7.90;;;2.00;99.90;;;-144.05;71.85;125687.94;4997520;28;20054;-82
2023/01/19 03:33:31;;;;;;;11.95;8.32;;;2.00;99.90;;;-144.05;71.47;125687.94;4997956;28;20065;-80
2023/01/19 03:36:04;;;;;;;;;;;2.10;99.90;;;-144.05;70.95;125687.94;5015775;28;20030;-79
2023/01/19 03:38:37;;;;;;;13.15;7.82;;;2.00;99.90;;;-144.05;71.40;125687.94;5015939;28;19963;-80
2023/01/19 03:41:15;;;;;;;14.75;9.15;;;2.00;99.90;;;-144.05;71.52;125687.94;5013963;28;20033;-81
2023/01/19 03:43:46;;;;;;;13.88;8.90;;;1.90;99.90;;;-144.05;72.02;125687.94;5005111;28;20052;-80
2023/01/19 03:46:16;;;;;;;15.02;8.68;;;1.90;99.90;;;-144.05;71.71;125687.94;5021052;28;20050;-80
2023/01/19 03:48:43;;;;;;;16.77;7.47;;;1.90;99.90;;;-144.05;71.38;125687.94;5020564;28;20025;-81
2023/01/19 03:51:12;;;;;;;15.40;7.55;;;2.00;99.90;;;-144.05;71.00;125687.94;5018672;28;20026;-81
2023/01/19 03:53:38;;;;;;;16.23;8.40;;;2.10;99.90;;;-144.05;70.94;125687.94;5019645;28;20057;-81
2023/01/19 03:56:05;;;;;;;13.32;7.20;;;2.10;99.90;;;-144.05;71.17;125687.94;5017632;28;20041;-81
2023/01/19 03:58:30;;;;;;;15.85;7.70;;;2.20;99.90;;;-144.05;70.59;125687.94;4999500;28;20030;-80
2023/01/19 04:00:57;;;;;;;12.90;7.68;;;2.20;99.90;;;-144.05;70.79;125687.94;4999034;28;20026;-81
2023/01/19 04:03:22;;;;;;;16.60;7.72;;;2.10;99.90;;;-144.05;71.23;125687.94;5017835;28;20084;-81
2023/01/19 04:05:48;;;;;;;14.00;8.00;;;2.20;99.90;;;-144.05;70.91;125687.94;5016595;28;20025;-81
2023/01/19 04:08:14;;;;;;;12.95;7.68;;;2.10;99.90;;;-144.05;71.25;125687.94;5016956;28;20030;-80
2023/01/19 04:10:40;;;;;;;16.60;8.23;;;2.20;99.90;;;-144.05;71.11;125687.94;5015244;28;20065;-81
2023/01/19 04:13:06;;;;;;;15.13;8.60;;;2.30;99.90;;;-144.05;70.26;125687.94;5016778;28;20450;-81
2023/01/19 04:15:32;;;;;;;14.38;7.07;;;2.30;99.90;;;-144.05;70.58;125687.94;5016984;28;20061;-80
2023/01/19 04:18:00;;;;;;;14.07;7.25;;;2.30;99.90;;;-144.05;70.35;125687.94;5013622;28;20100;-81
2023/01/19 04:20:27;;;;;;;16.80;8.00;;;2.30;99.90;;;-144.05;70.39;125687.94;5013508;28;20121;-82
2023/01/19 04:22:59;;;;;;;16.17;7.80;;;2.30;99.90;;;-144.05;70.80;125687.94;5013869;28;20213;-81
2023/01/19 04:25:27;;;;;;;13.45;7.70;;;2.30;99.90;;;-144.05;71.70;125687.94;5014974;28;20117;-81
2023/01/19 04:27:54;;;;;;;15.48;7.13;;;2.30;99.90;;;-144.05;71.49;125687.94;4995762;28;20084;-80
2023/01/19 04:30:21;;;;;;;16.02;7.70;;;2.30;99.90;;;-144.05;71.39;125687.94;5012236;28;20095;-82
2023/01/19 04:32:47;;;;;;;15.13;7.95;;;2.30;99.90;;;-144.05;71.55;125687.94;5012660;28;20033;-81
2023/01/19 04:35:13;;;;;;;13.68;7.32;;;2.40;99.90;;;-144.05;71.27;125687.94;5012813;28;20026;-81
2023/01/19 04:37:39;;;;;;;11.40;7.57;;;2.30;99.90;;;-144.05;71.48;125687.94;4994974;28;20150;-80
2023/01/19 04:40:06;;;;;;;14.93;7.78;;;2.30;99.90;;;-144.05;71.58;125687.94;4995268;28;20033;-82
2023/01/19 04:42:32;;;;;;;17.27;7.63;;;2.30;99.90;;;-144.05;72.14;125687.94;5013068;28;20109;-83
2023/01/19 04:44:58;;;;;;;12.95;8.00;;;2.30;99.90;;;-144.05;72.79;125687.94;5013282;28;20465;-83
2023/01/19 04:47:23;;;;;;;15.38;8.18;;;2.30;99.90;;;-144.05;73.21;125687.94;4995513;28;20033;-81
2023/01/19 04:49:49;;;;;;;12.93;6.72;;;2.30;99.90;;;-144.05;73.82;125687.94;5016831;28;20115;-82
2023/01/19 04:52:15;;;;;;;17.08;7.70;;;2.20;99.90;;;-144.05;74.99;125687.94;5016424;28;20037;-81
2023/01/19 04:54:41;;;;;;;11.55;7.72;;;2.10;99.90;;;-144.05;75.77;125687.94;4997226;28;20164;-81
2023/01/19 04:57:07;;;;;;;15.13;8.48;;;1.90;99.90;;;-144.05;76.72;125687.94;5014648;28;20104;-80
2023/01/19 04:59:33;;;;;;;14.88;8.48;;;1.80;99.90;;;-144.05;78.13;125687.94;4997566;28;20026;-79
2023/01/19 05:01:58;;;;;;;15.88;8.07;;;1.60;99.90;;;-144.05;78.99;125687.94;5014786;28;20026;-82
2023/01/19 05:04:25;;;;;;;14.52;8.98;;;1.50;99.90;;;-144.05;80.35;125687.94;4999726;28;20026;-81
2023/01/19 05:06:53;;;;;;;16.65;9.30;;;1.40;99.90;;;-144.05;80.78;125687.94;4995369;28;20060;-82
2023/01/19 05:09:19;;;;;;;16.70;9.52;;;1.30;99.90;;;-144.05;81.22;125687.94;4995109;28;20061;-81
2023/01/19 05:11:45;;;;;;;18.05;9.88;;;1.20;99.90;;;-144.05;82.11;125687.94;5012711;28;20116;-84
2023/01/19 05:14:10;;;;;;;16.35;10.00;;;1.20;99.90;;;-144.05;82.47;125687.94;4995388;28;20141;-82
2023/01/19 05:16:37;;;;;;;16.17;9.63;;;1.10;99.90;;;-144.05;82.70;125687.94;4995617;28;20197;-82
2023/01/19 05:19:03;;;;;;;17.10;9.68;;;1.10;99.90;;;-144.05;82.84;125687.94;5009694;28;20087;-81
2023/01/19 05:21:28;;;;;;;20.92;10.35;;;1.10;99.90;;;-144.05;83.61;125687.94;5029883;28;20026;-81
2023/01/19 05:23:54;;;;;;;18.23;9.85;;;1.00;99.90;;;-144.05;83.44;125687.94;5010250;28;20041;-82
2023/01/19 05:26:20;;;;;;;20.80;10.32;;;1.00;99.90;;;-144.05;84.09;125687.94;5014777;28;20121;-82
2023/01/19 05:28:46;;;;;;;20.95;9.85;;;1.00;99.90;;;-144.05;83.91;125687.94;5011902;28;20037;-82
2023/01/19 05:31:12;;;;;;;20.33;10.52;;;1.00;99.90;;;-144.05;84.13;125687.94;5011990;28;20072;-81
2023/01/19 05:33:38;;;;;;;18.73;9.75;;;1.00;99.90;;;-144.05;84.13;125687.94;5013449;28;20464;-81
2023/01/19 05:36:04;;;;;;;18.83;11.00;;;1.00;99.90;;;-144.05;84.02;125687.94;4998731;28;20034;-81
2023/01/19 05:38:30;;;;;;;21.40;11.70;;;1.00;99.90;;;-144.05;84.18;125687.94;5013493;28;20026;-82
2023/01/19 05:40:57;;;;;;;19.25;10.68;;;1.00;99.90;;;-144.05;84.10;125687.94;4995133;28;20374;-83
2023/01/19 05:43:24;;;;;;;17.73;9.95;;;1.00;99.90;;;-144.05;84.22;125687.94;5012540;28;20041;-83
2023/01/19 05:45:51;;;;;;;14.57;9.02;;;1.00;99.90;;;-144.05;83.94;125687.94;4995290;28;20088;-83
2023/01/19 05:48:16;;;;;;;15.95;9.93;;;1.00;99.90;;;-144.05;83.84;125687.94;5012603;28;20497;-81
2023/01/19 05:50:42;;;;;;;17.02;9.48;;;1.00;99.90;;;-144.05;83.96;125687.94;5012899;28;20087;-82
2023/01/19 05:53:08;;;;;;;13.77;8.95;;;1.10;99.90;;;-144.05;84.08;125687.94;5013801;28;20128;-81
2023/01/19 05:55:34;;;;;;;14.15;9.57;;;1.10;99.90;;;-144.05;83.99;125687.94;5015598;28;20180;-83
2023/01/19 05:58:00;;;;;;;16.05;8.85;;;1.10;99.90;;;-144.05;83.41;125687.94;5014211;28;20049;-84
2023/01/19 06:00:26;;;;;;;15.85;8.70;;;1.10;99.90;;;-144.05;84.01;125687.94;5014544;28;20040;-82
2023/01/19 06:02:52;;;;;;;14.15;8.68;;;1.10;99.90;;;-144.05;83.91;125687.94;4998010;28;20481;-82
2023/01/19 06:05:19;;;;;;;18.52;9.50;;;1.10;99.90;;;-144.05;83.27;125687.94;5016272;28;20034;-81
2023/01/19 06:07:45;;;;;;;15.55;9.02;;;1.10;99.90;;;-144.05;83.61;125687.94;5014414;28;20065;-82
2023/01/19 06:10:11;;;;;;;16.77;9.52;;;1.10;99.90;;;-144.05;83.65;125687.94;4997624;28;20224;-84
2023/01/19 06:12:40;;;;;;;15.65;9.02;;;1.00;99.90;;;-144.05;83.88;125687.94;4998370;28;20129;-82
2023/01/19 06:15:07;;;;;;;15.45;8.60;;;1.00;99.90;;;-144.05;83.93;125687.94;4998561;28;20026;-81
2023/01/19 06:17:33;;;;;;;12.38;7.80;;;1.00;99.90;;;-144.05;83.98;125687.94;5016278;28;20034;-81
2023/01/19 06:19:59;;;;;;;14.00;8.30;;;1.00;99.90;;;-144.05;84.10;125687.94;4998313;28;20032;-82
2023/01/19 06:22:25;;;;;;;14.25;8.98;;;1.00;99.90;;;-144.05;84.06;125687.94;5015971;28;20397;-82
2023/01/19 06:24:54;;;;;;;13.70;8.40;;;1.00;99.90;;;-144.05;84.16;125687.94;5017104;28;20030;-83
2023/01/19 06:27:20;;;;;;;13.27;8.07;;;1.00;99.90;;;-144.05;84.12;125687.94;4999683;28;20489;-82
2023/01/19 06:29:46;;;;;;;14.25;8.45;;;1.00;99.90;;;-144.05;84.49;125687.94;5015409;28;20041;-82
2023/01/19 06:32:11;;;;;;;10.43;7.07;;;1.00;99.90;;;-144.05;84.33;125687.94;5000413;28;20057;-82
2023/01/19 06:34:39;;;;;;;11.82;7.55;;;1.00;99.90;;;-144.05;84.31;125687.94;4997363;28;20133;-80
2023/01/19 06:37:05;;;;;;;12.63;7.57;;;1.10;99.90;;;-144.05;83.96;125687.94;4997797;28;20026;-82
2023/01/19 06:39:31;;;;;;;11.15;6.63;;;1.00;99.90;;;-144.05;84.13;125687.94;5016294;28;20036;-85
2023/01/19 06:41:56;;;;;;;12.55;6.80;;;1.10;99.90;;;-144.05;84.04;125687.94;4998798;28;20037;-82
2023/01/19 06:44:22;;;;;;;9.45;6.22;;;1.10;99.90;;;-144.05;84.00;125687.94;5016195;28;20038;-82
2023/01/19 06:46:48;;;;;;;10.18;5.32;;;1.10;99.90;;;-144.05;84.44;125687.94;4998693;28;20037;-82
2023/01/19 06:49:14;;;;;;;9.48;6.47;;;1.10;99.90;;;-144.05;83.81;125687.94;5015778;28;20059;-80
2023/01/19 06:51:40;;;;;;;11.15;6.43;;;1.10;99.90;;;-144.05;83.41;125687.94;4997401;28;20056;-81
2023/01/19 06:54:05;;;;;;;8.77;6.07;;;1.00;99.90;;;-144.05;83.32;125687.94;5014963;28;20455;-80
2023/01/19 06:56:31;;;;;;;10.60;6.30;;;1.10;99.90;;;-144.05;83.52;125687.94;5016246;28;20026;-83
2023/01/19 06:58:57;;;;;;;10.25;6.22;;;1.10;99.90;;;-144.05;83.59;125687.94;5014815;28;20050;-85
2023/01/19 07:01:23;;;;;;;11.25;6.15;;;1.10;99.90;;;-144.05;83.36;125687.94;5015268;28;20124;-83
2023/01/19 07:03:49;;;;;;;8.98;6.03;;;1.00;99.90;;;-144.05;82.72;125687.94;4996692;28;20034;-83
2023/01/19 07:06:15;;;;;;;9.48;5.82;;;1.00;99.90;;;-144.05;83.04;125687.94;5013651;28;20397;-82
2023/01/19 07:08:41;;;;;;;8.20;5.55;;;1.10;99.90;;;-144.05;83.49;125687.94;4997106;28;20022;-84
2023/01/19 07:11:11;;;;;;;8.70;5.97;;;1.10;99.90;;;-144.05;83.19;125687.94;5013350;28;20029;-82
2023/01/19 07:13:39;;;;;;;7.05;5.43;;;1.10;99.90;;;-144.05;83.27;125687.94;5014870;28;20029;-83
2023/01/19 07:16:13;;;;;;;10.15;5.28;;;1.10;99.90;;;-144.05;82.81;125687.94;4996598;28;20393;-84
2023/01/19 07:18:40;;;;;;;7.82;5.55;;;1.10;99.90;;;-144.05;83.42;125687.94;4996473;28;20026;-82
2023/01/19 07:21:07;;;;;;;7.28;4.88;;;1.00;99.90;;;-144.05;83.06;125687.94;5012887;28;20121;-83
2023/01/19 07:23:33;;;;;;;6.63;4.63;;;1.00;99.90;;;-144.05;83.02;125687.94;4997374;28;20044;-81
2023/01/19 07:26:00;;;;;;;8.40;5.03;;;1.10;99.90;;;-144.05;83.84;125687.94;5014641;28;20131;-84
2023/01/19 07:28:28;;;;;;;8.65;4.90;;;1.10;99.90;;;-144.05;84.35;125687.94;4996579;28;20036;-85
2023/01/19 07:30:55;;;;;;;6.15;4.70;;;1.10;99.90;;;-144.05;84.36;125687.94;5014099;28;20034;-82
2023/01/19 07:33:22;;;;;;;7.40;5.28;;;1.10;99.90;;;-144.05;83.77;125687.94;5015379;28;20034;-84
2023/01/19 07:35:49;;;;;;;6.90;5.25;;;1.10;99.90;;;-144.05;83.69;125687.94;5014708;28;20476;-83
2023/01/19 07:38:17;;;;;;;7.70;4.35;;;1.10;99.90;;;-144.05;83.86;125687.94;4996491;28;20053;-82
2023/01/19 07:40:47;;;;;;;7.22;5.03;;;1.20;99.90;;;-144.05;83.68;125687.94;4997153;28;20022;-83
2023/01/19 07:43:14;;;;;;;6.55;4.97;;;1.20;99.90;;;-144.05;83.51;125687.94;4997393;28;20030;-84
2023/01/19 07:45:41;;;;;;;10.30;4.70;;;1.20;99.90;;;-144.05;83.02;125687.94;5015217;28;20125;-85
2023/01/19 07:48:07;;;;;;;12.00;5.45;;;1.20;99.90;;;-144.05;83.36;125687.94;5013915;28;20117;-84
2023/01/19 07:50:33;;;;;;;10.10;5.65;;;1.20;99.90;;;-144.05;83.40;125687.94;5014497;28;20088;-83
2023/01/19 07:53:07;;;;;;;10.05;5.47;;;1.20;99.90;;;-144.05;83.98;125687.94;5013997;28;20034;-85
2023/01/19 07:55:33;;;;;;;9.48;6.30;;;1.20;99.90;;;-144.05;83.36;125687.94;5013520;28;20097;-84
2023/01/19 07:57:59;;;;;;;9.98;6.13;;;1.30;99.90;;;-144.05;83.22;125687.94;5013685;28;20109;-84
2023/01/19 08:00:25;;;;;;;14.02;7.05;;;1.20;99.90;;;-144.05;83.16;125687.94;4996556;28;20528;-84
2023/01/19 08:02:52;;;;;;;12.82;7.00;;;1.20;99.90;;;-144.05;83.41;125687.94;4998094;28;20104;-84
2023/01/19 08:05:20;;;;;;;13.98;7.82;;;1.30;99.90;;;-144.05;83.06;125687.94;5004092;28;20165;-86
2023/01/19 08:07:47;;;;;;;14.48;8.00;;;1.30;99.90;;;-144.05;83.12;125687.94;5015398;28;20083;-83
2023/01/19 08:10:15;;;;;;;14.88;8.18;;;1.30;99.90;;;-144.05;83.03;125687.94;5014915;28;20030;-85
2023/01/19 08:12:41;;;;;;;14.70;8.48;;;1.30;99.90;;;-144.05;83.19;125687.94;5015215;28;20393;-86
2023/01/19 08:15:09;;;;;;;13.70;9.02;;;1.30;99.90;;;-144.05;82.99;125687.94;5014415;28;20029;-83
2023/01/19 08:17:37;;;;;;;14.50;8.70;;;1.30;99.90;;;-144.05;83.27;125687.94;4996596;28;20034;-84
2023/01/19 08:20:05;;;;;;;14.85;9.52;;;1.30;99.90;;;-144.05;83.19;125687.94;4996683;28;20188;-82
2023/01/19 08:22:31;;;;;;;18.48;9.98;;;1.30;99.90;;;-144.05;83.46;125687.94;4996424;28;20109;-83
2023/01/19 08:24:57;;;;;;;19.88;10.15;;;1.40;99.90;;;-144.05;82.41;125687.94;4996007;28;20117;-84
2023/01/19 08:27:22;;;;;;;18.10;9.50;;;1.40;99.90;;;-144.05;82.38;125687.94;4996681;28;20026;-83
2023/01/19 08:29:48;;;;;;;19.92;10.85;;;1.40;99.90;;;-144.05;82.69;125687.94;5013716;28;20061;-84
2023/01/19 08:32:14;;;;;;;16.45;10.02;;;1.40;99.90;;;-144.05;83.14;125687.94;4996938;28;20022;-84
2023/01/19 08:34:40;;;;;;;21.35;11.88;;;1.40;99.90;;;-144.05;83.33;125687.94;4997014;28;20087;-82
2023/01/19 08:37:06;;;;;;;19.45;11.60;;;1.40;99.90;;;-144.05;83.06;125687.94;4996560;28;20121;-85
2023/01/19 08:39:32;;;;;;;18.48;11.93;;;1.50;99.90;;;-144.05;82.67;125687.94;4996724;28;20026;-84
2023/01/19 08:41:59;;;;;;;20.08;11.57;;;1.50;99.90;;;-144.05;83.09;125687.94;4996668;28;20395;-85
2023/01/19 08:44:26;;;;;;;26.92;12.10;;;1.50;99.90;;;-144.05;83.29;125687.94;5011911;28;20030;-85
2023/01/19 08:46:53;;;;;;;20.05;11.77;;;1.50;99.90;;;-144.05;82.78;125687.94;4995501;28;20057;-84
2023/01/19 08:49:18;;;;;;;20.13;11.55;;;1.50;99.90;;;-144.05;82.75;125687.94;4995683;28;20033;-84
2023/01/19 08:51:45;;;;;;;17.17;10.65;;;1.50;99.90;;;-144.05;82.51;125687.94;5013328;28;20036;-84
2023/01/19 08:54:12;;;;;;;18.85;11.60;;;1.60;99.90;;;-144.05;82.51;125687.94;4995552;28;20120;-83
2023/01/19 08:56:38;;;;;;;22.48;12.82;;;1.50;99.90;;;-144.05;82.36;125687.94;5013105;28;20030;-82
2023/01/19 08:59:04;;;;;;;20.90;12.10;;;1.60;99.90;;;-144.05;82.19;125687.94;5013539;28;20087;-83
2023/01/19 09:01:30;;;;;;;24.33;12.27;;;1.60;99.90;;;-144.05;82.47;125687.94;5013683;28;20057;-85
2023/01/19 09:03:59;;;;;;;19.73;12.23;;;1.50;99.90;;;-144.05;82.87;125687.94;5013835;28;20078;-85
2023/01/19 09:06:25;;;;;;;21.05;12.63;;;1.60;99.90;;;-144.05;82.81;125687.94;5013433;28;20116;-85
2023/01/19 09:08:50;;;;;;;24.58;12.85;;;1.60;99.90;;;-144.05;82.74;125687.94;4995231;28;20030;-83
2023/01/19 09:11:16;;;;;;;20.55;12.77;;;1.60;99.90;;;-144.05;82.19;125687.94;4995832;28;20128;-86
2023/01/19 09:13:43;;;;;;;25.55;12.93;;;1.60;99.90;;;-144.05;82.48;125687.94;4996067;28;20034;-84
2023/01/19 09:16:11;;;;;;;28.13;14.00;;;1.60;99.90;;;-144.05;82.88;125687.94;5013010;28;20030;-84
2023/01/19 09:18:38;;;;;;;27.42;14.63;;;1.70;99.90;;;-144.05;82.69;125687.94;4995204;28;20022;-83
2023/01/19 09:21:04;;;;;;;24.33;12.98;;;1.60;99.90;;;-144.05;82.94;125687.94;4995297;28;20080;-83
2023/01/19 09:23:30;;;;;;;26.55;14.23;;;1.70;99.90;;;-144.05;82.64;125687.94;5013059;28;20030;-83
2023/01/19 09:26:02;;;;;;;25.58;14.75;;;1.70;99.90;;;-144.05;82.98;125687.94;5012844;28;20040;-83
2023/01/19 09:28:29;;;;;;;29.52;16.42;;;1.70;99.90;;;-144.05;82.72;125687.94;4996066;28;20037;-82
2023/01/19 09:30:55;;;;;;;27.23;15.68;;;1.70;99.90;;;-144.05;82.99;125687.94;4998917;28;20034;-83
2023/01/19 09:33:21;;;;;;;27.63;16.77;;;1.70;99.90;;;-144.05;83.08;125687.94;4998791;28;20091;-82
2023/01/19 09:35:50;;;;;;;32.25;16.52;;;1.70;99.90;;;-144.05;82.24;125687.94;4999385;28;20037;-81
2023/01/19 09:38:17;;;;;;;29.38;17.20;;;1.70;99.90;;;-144.05;82.29;125687.94;4999154;28;20408;-84
2023/01/19 09:40:52;;;;;;;31.77;17.20;;;1.70;99.90;;;-144.05;82.65;125687.94;5015143;28;20121;-85
2023/01/19 09:43:46;;;;;;;31.42;18.13;;;1.70;99.90;;;-144.05;82.78;125687.94;4999371;28;20038;-83
2023/01/19 09:46:40;;;;;;;29.80;18.23;;;1.70;99.90;;;-144.05;83.09;125687.94;5016737;28;20508;-83
2023/01/19 09:49:15;;;;;;;29.75;18.10;;;1.70;99.90;;;-144.05;82.25;125687.94;4998926;28;20036;-83
2023/01/19 09:51:48;;;;;;;38.95;20.50;;;1.80;99.90;;;-144.05;82.72;125687.94;5016029;28;20040;-83
2023/01/19 09:54:45;;;;;;;38.75;20.67;;;1.70;99.90;;;-144.05;82.37;125687.94;5016109;28;20038;-83
2023/01/19 09:57:12;;;;;;;;;;;1.80;99.90;;;-144.05;82.81;125687.94;5014980;28;20117;-83
2023/01/19 09:59:38;;;;;;;35.95;18.80;;;1.80;99.90;;;-144.05;83.06;125687.94;4998408;28;19910;-84
2023/01/19 10:02:42;;;;;;;40.92;21.20;;;1.80;99.90;;;-144.05;82.86;125687.94;5016704;28;20401;-83
2023/01/19 10:05:38;;;;;;;34.72;20.02;;;1.80;99.90;;;-144.05;82.98;125687.94;4998638;28;20030;-82
2023/01/19 10:08:28;;;;;;;40.58;21.33;;;1.80;99.90;;;-144.05;82.84;125687.94;4998744;28;20030;-83
2023/01/19 10:10:57;;;;;;;38.15;21.13;;;1.80;99.90;;;-144.05;83.09;125687.94;5016628;28;20036;-83
2023/01/19 10:13:46;;;;;;;39.72;22.38;;;1.90;99.90;;;-144.05;83.14;125687.94;4999701;28;20118;-81
2023/01/19 10:24:12;;;;;;;38.30;21.88;;;1.90;99.90;;;-144.05;83.13;125687.94;5056807;28;20063;-85
2023/01/19 10:26:48;;;;;;;35.85;20.63;;;2.00;99.90;;;-144.05;82.79;125687.94;5056009;28;20103;-84
2023/01/19 10:29:37;;;;;;;35.63;20.95;;;2.00;99.90;;;-144.05;82.95;125687.94;5057278;28;20029;-84